createdAt,value
2018-08-11T00:00:26.471Z,80.45
2018-08-11T00:01:26.450Z,80.26
2018-08-11T00:02:26.404Z,80.07
2018-08-11T00:03:26.365Z,79.97
2018-08-11T00:04:26.330Z,80.26
2018-08-11T00:05:26.296Z,80.26
2018-08-11T00:06:26.267Z,80.45
2018-08-11T00:07:26.228Z,80.45
2018-08-11T00:08:26.197Z,80.35
2018-08-11T00:09:26.163Z,80.64
2018-08-11T00:10:26.131Z,79.93
2018-08-11T00:11:26.094Z,79.39
2018-08-11T00:12:26.060Z,79.88
2018-08-11T00:13:26.032Z,79.49
2018-08-11T00:14:25.997Z,79.83
2018-08-11T00:15:25.963Z,79.64
2018-08-11T00:16:25.923Z,79.64
2018-08-11T00:17:25.886Z,79.78
2018-08-11T00:18:25.852Z,79.59
2018-08-11T00:19:25.821Z,79.55
2018-08-11T00:20:25.791Z,79.07
2018-08-11T00:21:25.756Z,78.88
2018-08-11T00:22:25.723Z,79.07
2018-08-11T00:23:25.701Z,79.36
2018-08-11T00:24:25.650Z,79.83
2018-08-11T00:25:25.614Z,79.55
2018-08-11T00:26:25.590Z,79.49
2018-08-11T00:27:25.550Z,79.97
2018-08-11T00:28:25.515Z,79.88
2018-08-11T00:29:25.478Z,80.55
2018-08-11T00:30:25.444Z,80.07
2018-08-11T00:31:25.412Z,80.07
2018-08-11T00:32:25.379Z,80.16
2018-08-11T00:33:25.348Z,79.88
2018-08-11T00:34:25.314Z,80.16
2018-08-11T00:35:25.278Z,80.26
2018-08-11T00:36:25.265Z,80.83
2018-08-11T00:37:25.205Z,80.64
2018-08-11T00:38:25.174Z,80.26
2018-08-11T00:39:25.139Z,80.35
2018-08-11T00:40:25.134Z,80.35
2018-08-11T00:41:25.077Z,81.31
2018-08-11T00:42:25.038Z,80.26
2018-08-11T00:43:25.004Z,80.55
2018-08-11T00:44:24.970Z,80.64
2018-08-11T00:45:24.938Z,80.26
2018-08-11T00:46:24.904Z,80.26
2018-08-11T00:47:24.868Z,80.26
2018-08-11T00:48:24.831Z,80.26
2018-08-11T00:49:24.839Z,79.68
2018-08-11T00:50:24.763Z,79.83
2018-08-11T00:51:24.733Z,79.97
2018-08-11T00:52:24.697Z,79.97
2018-08-11T00:53:24.665Z,80.22
2018-08-11T00:54:24.630Z,80.45
2018-08-11T00:55:24.595Z,80.07
2018-08-11T00:56:24.558Z,80.26
2018-08-11T00:57:24.525Z,80.26
2018-08-11T00:58:24.496Z,80.35
2018-08-11T00:59:24.462Z,80.64
2018-08-11T01:00:24.425Z,79.97
2018-08-11T01:01:24.438Z,79.78
2018-08-11T01:02:24.436Z,80.22
2018-08-11T01:03:24.322Z,80.26
2018-08-11T01:04:24.288Z,80.41
2018-08-11T01:05:24.254Z,80.26
2018-08-11T01:06:24.227Z,79.93
2018-08-11T01:07:24.184Z,80.26
2018-08-11T01:08:24.148Z,79.97
2018-08-11T01:09:24.112Z,79.74
2018-08-11T01:10:24.078Z,79.83
2018-08-11T01:11:24.047Z,79.45
2018-08-11T01:12:24.014Z,79.74
2018-08-11T01:13:23.982Z,79.74
2018-08-11T01:14:23.942Z,79.64
2018-08-11T01:15:23.910Z,79.68
2018-08-11T01:16:23.880Z,79.64
2018-08-11T01:17:23.845Z,79.64
2018-08-11T01:18:23.812Z,79.64
2018-08-11T01:19:23.775Z,79.36
2018-08-11T01:20:23.740Z,79.55
2018-08-11T01:21:23.707Z,79.97
2018-08-11T01:22:23.670Z,79.68
2018-08-11T01:23:23.636Z,79.78
2018-08-11T01:24:23.609Z,79.59
2018-08-11T01:25:23.572Z,79.97
2018-08-11T01:26:23.539Z,79.59
2018-08-11T01:27:23.502Z,80.26
2018-08-11T01:28:23.466Z,80.26
2018-08-11T01:29:23.433Z,79.59
2018-08-11T01:30:23.401Z,79.88
2018-08-11T01:31:23.365Z,79.78
2018-08-11T01:32:23.329Z,79.83
2018-08-11T01:33:23.296Z,79.97
2018-08-11T01:34:23.267Z,79.49
2018-08-11T01:35:23.227Z,79.78
2018-08-11T01:36:23.194Z,79.88
2018-08-11T01:37:23.162Z,79.59
2018-08-11T01:38:23.129Z,80.26
2018-08-11T01:39:23.092Z,79.88
2018-08-11T01:40:23.057Z,80.26
2018-08-11T01:41:23.025Z,79.49
2018-08-11T01:42:22.984Z,79.49
2018-08-11T01:43:22.953Z,79.88
2018-08-11T01:44:23.002Z,79.59
2018-08-11T01:45:22.890Z,78.97
2018-08-11T01:46:22.847Z,79.64
2018-08-11T01:47:22.818Z,79.68
2018-08-11T01:48:22.786Z,78.82
2018-08-11T01:49:22.752Z,79.16
2018-08-11T01:50:22.719Z,79.11
2018-08-11T01:51:22.681Z,79.26
2018-08-11T01:52:22.650Z,79.68
2018-08-11T01:53:22.608Z,79.11
2018-08-11T01:54:22.573Z,79.49
2018-08-11T01:55:22.543Z,79.11
2018-08-11T01:56:22.510Z,79.11
2018-08-11T01:57:22.479Z,79.78
2018-08-11T01:58:22.476Z,79.21
2018-08-11T01:59:22.411Z,79.88
2018-08-11T02:00:22.374Z,79.78
2018-08-11T02:01:22.336Z,79.59
2018-08-11T02:02:22.307Z,79.68
2018-08-11T02:03:22.272Z,79.59
2018-08-11T02:04:22.235Z,79.21
2018-08-11T02:05:22.202Z,79.11
2018-08-11T02:06:22.165Z,79.21
2018-08-11T02:07:22.181Z,79.21
2018-08-11T02:08:22.116Z,78.72
2018-08-11T02:09:22.071Z,78.72
2018-08-11T02:10:22.038Z,78.34
2018-08-11T02:11:22.082Z,78.15
2018-08-11T02:12:21.962Z,78.44
2018-08-11T02:13:21.926Z,78.44
2018-08-11T02:14:21.894Z,78.63
2018-08-11T02:15:21.860Z,78.53
2018-08-11T02:16:21.827Z,78.25
2018-08-11T02:17:21.795Z,78.15
2018-08-11T02:18:21.754Z,78.05
2018-08-11T02:19:21.726Z,78.25
2018-08-11T02:20:21.693Z,78.44
2018-08-11T02:21:21.660Z,78.25
2018-08-11T02:22:21.625Z,74.98
2018-08-11T02:23:21.590Z,74.31
2018-08-11T02:24:21.555Z,72.84
2018-08-11T02:25:21.519Z,67.41
2018-08-11T02:26:21.482Z,64.53
2018-08-11T02:27:21.450Z,62.04
2018-08-11T02:28:21.424Z,57.82
2018-08-11T02:29:21.388Z,52.33
2018-08-11T02:30:21.352Z,49.74
2018-08-11T02:31:21.316Z,48.02
2018-08-11T02:32:21.281Z,44.85
2018-08-11T02:33:21.249Z,44.66
2018-08-11T02:34:21.225Z,41.88
2018-08-11T02:35:21.180Z,40.54
2018-08-11T02:36:21.146Z,40.35
2018-08-11T02:37:21.108Z,38.81
2018-08-11T02:38:21.079Z,39.29
2018-08-11T02:39:21.041Z,39.10
2018-08-11T02:40:21.009Z,38.24
2018-08-11T02:41:20.977Z,37.47
2018-08-11T02:42:20.943Z,36.80
2018-08-11T02:43:20.907Z,36.99
2018-08-11T02:44:20.869Z,37.47
2018-08-11T02:45:20.833Z,37.85
2018-08-11T02:46:20.797Z,36.71
2018-08-11T02:47:20.767Z,36.04
2018-08-11T02:48:20.734Z,35.94
2018-08-11T02:49:20.702Z,34.59
2018-08-11T02:50:20.661Z,33.73
2018-08-11T02:51:20.628Z,32.10
2018-08-11T02:52:20.600Z,29.52
2018-08-11T02:53:20.563Z,29.61
2018-08-11T02:54:20.533Z,28.66
2018-08-11T02:55:20.493Z,28.46
2018-08-11T02:56:20.457Z,28.46
2018-08-11T02:57:20.420Z,28.85
2018-08-11T02:58:20.386Z,29.33
2018-08-11T02:59:20.359Z,29.61
2018-08-11T03:00:20.323Z,29.90
2018-08-11T03:01:20.290Z,30.00
2018-08-11T03:02:20.312Z,28.08
2018-08-11T03:03:20.232Z,25.30
2018-08-11T03:04:20.181Z,24.63
2018-08-11T03:05:20.146Z,23.38
2018-08-11T03:06:20.116Z,21.17
2018-08-11T03:07:20.084Z,19.16
2018-08-11T03:08:20.044Z,18.96
2018-08-11T03:09:20.008Z,17.91
2018-08-11T03:10:19.975Z,18.29
2018-08-11T03:11:19.942Z,16.86
2018-08-11T03:12:19.910Z,16.96
2018-08-11T03:13:19.876Z,17.63
2018-08-11T03:14:19.843Z,17.82
2018-08-11T03:15:19.807Z,17.92
2018-08-11T03:16:19.771Z,17.63
2018-08-11T03:17:19.733Z,18.02
2018-08-11T03:18:19.714Z,17.25
2018-08-11T03:19:19.665Z,15.91
2018-08-11T03:20:19.635Z,14.18
2018-08-11T03:21:19.601Z,12.35
2018-08-11T03:22:19.559Z,12.45
2018-08-11T03:23:19.527Z,11.49
2018-08-11T03:24:19.495Z,11.49
2018-08-11T03:25:19.462Z,11.98
2018-08-11T03:26:19.430Z,11.50
2018-08-11T03:27:19.398Z,11.11
2018-08-11T03:28:19.356Z,11.21
2018-08-11T03:29:19.321Z,11.30
2018-08-11T03:30:19.285Z,10.73
2018-08-11T03:31:19.252Z,11.01
2018-08-11T03:32:19.221Z,10.93
2018-08-11T03:33:19.194Z,11.68
2018-08-11T03:34:19.152Z,11.50
2018-08-11T03:35:19.115Z,11.49
2018-08-11T03:36:19.079Z,11.78
2018-08-11T03:37:19.044Z,11.40
2018-08-11T03:38:19.014Z,11.40
2018-08-11T03:39:18.980Z,11.30
2018-08-11T03:40:18.947Z,11.68
2018-08-11T03:41:18.912Z,11.88
2018-08-11T03:42:18.870Z,11.97
2018-08-11T03:43:18.838Z,12.07
2018-08-11T03:44:18.806Z,11.88
2018-08-11T03:45:18.773Z,11.40
2018-08-11T03:46:18.745Z,11.40
2018-08-11T03:47:18.726Z,9.96
2018-08-11T03:48:18.666Z,10.06
2018-08-11T03:49:18.632Z,9.67
2018-08-11T03:50:18.595Z,9.86
2018-08-11T03:51:18.562Z,9.86
2018-08-11T03:52:18.532Z,10.25
2018-08-11T03:53:18.497Z,10.15
2018-08-11T03:54:18.456Z,10.06
2018-08-11T04:06:58.610Z,7.56
2018-08-11T04:07:58.526Z,7.47
2018-08-11T04:08:58.488Z,7.18
2018-08-11T04:09:58.454Z,6.41
2018-08-11T04:10:58.415Z,6.32
2018-08-11T04:11:58.371Z,6.41
2018-08-11T04:12:58.334Z,6.32
2018-08-11T04:13:58.296Z,6.70
2018-08-11T04:14:58.262Z,6.32
2018-08-11T04:15:58.227Z,6.13
2018-08-11T04:16:58.198Z,6.03
2018-08-11T04:17:58.156Z,6.89
2018-08-11T04:18:58.119Z,6.32
2018-08-11T04:19:58.079Z,5.65
2018-08-11T04:20:58.043Z,6.13
2018-08-11T04:21:58.022Z,6.32
2018-08-11T04:22:57.973Z,6.13
2018-08-11T04:23:57.939Z,5.93
2018-08-11T04:24:57.908Z,5.26
2018-08-11T04:25:57.865Z,5.36
2018-08-11T04:26:57.830Z,5.83
2018-08-11T04:27:57.797Z,5.17
2018-08-11T04:28:57.764Z,5.07
2018-08-11T04:29:57.727Z,4.11
2018-08-11T04:30:57.691Z,3.92
2018-08-11T04:31:57.654Z,4.11
2018-08-11T04:32:57.616Z,4.60
2018-08-11T04:33:57.581Z,3.73
2018-08-11T04:34:57.549Z,3.73
2018-08-11T04:35:57.515Z,2.01
2018-08-11T04:36:57.488Z,1.62
2018-08-11T04:37:57.448Z,0.95
2018-08-11T04:38:57.412Z,0.95
2018-08-11T04:39:57.373Z,0.86
2018-08-11T04:40:57.339Z,0.76
2018-08-11T04:41:57.313Z,1.05
2018-08-11T04:42:57.273Z,1.53
2018-08-11T04:43:57.232Z,1.82
2018-08-11T04:44:57.202Z,2.01
2018-08-11T04:45:57.162Z,2.29
2018-08-11T04:46:57.130Z,2.68
2018-08-11T04:47:57.098Z,2.97
2018-08-11T04:48:57.062Z,3.35
2018-08-11T04:49:57.028Z,2.97
2018-08-11T04:50:56.991Z,2.68
2018-08-11T04:51:56.954Z,3.06
2018-08-11T04:52:56.917Z,3.64
2018-08-11T04:53:56.880Z,4.11
2018-08-11T04:54:56.853Z,4.50
2018-08-11T04:55:56.826Z,4.79
2018-08-11T04:56:56.783Z,3.92
2018-08-11T04:57:56.742Z,4.30
2018-08-11T04:58:56.712Z,4.88
2018-08-11T04:59:56.676Z,5.65
2018-08-11T05:00:56.648Z,4.02
2018-08-11T05:01:56.609Z,3.54
2018-08-11T05:02:56.572Z,3.54
2018-08-11T05:03:56.541Z,3.64
2018-08-11T05:04:56.498Z,3.45
2018-08-11T05:05:56.465Z,4.40
2018-08-11T05:06:56.436Z,4.98
2018-08-11T05:07:56.398Z,5.07
2018-08-11T05:08:56.369Z,5.55
2018-08-11T05:09:56.334Z,5.36
2018-08-11T05:10:56.300Z,6.23
2018-08-11T05:11:56.258Z,6.23
2018-08-11T05:12:56.221Z,6.80
2018-08-11T05:13:56.196Z,6.23
2018-08-11T05:14:56.158Z,5.65
2018-08-11T05:15:56.120Z,3.44
2018-08-11T05:16:56.087Z,2.97
2018-08-11T05:17:56.051Z,4.31
2018-08-11T05:18:56.020Z,4.50
2018-08-11T05:19:56.045Z,5.17
2018-08-11T05:20:55.952Z,6.13
2018-08-11T05:21:55.919Z,7.37
2018-08-11T05:22:55.880Z,8.14
2018-08-11T05:23:55.843Z,9.39
2018-08-11T05:24:55.806Z,9.39
2018-08-11T05:25:55.777Z,9.77
2018-08-11T05:26:55.739Z,10.44
2018-08-11T05:27:55.709Z,10.06
2018-08-11T05:28:55.674Z,8.81
2018-08-11T05:29:55.635Z,8.72
2018-08-11T05:30:55.610Z,8.91
2018-08-11T05:31:55.569Z,9.29
2018-08-11T05:32:55.538Z,8.91
2018-08-11T05:33:55.503Z,8.91
2018-08-11T05:34:55.473Z,9.67
2018-08-11T05:35:55.432Z,10.83
2018-08-11T05:36:55.392Z,11.60
2018-08-11T05:37:55.360Z,13.13
2018-08-11T05:38:55.325Z,14.76
2018-08-11T05:39:55.293Z,15.62
2018-08-11T05:40:55.266Z,15.43
2018-08-11T05:41:55.228Z,16.00
2018-08-11T05:42:55.192Z,14.95
2018-08-11T05:43:55.154Z,15.23
2018-08-11T05:44:55.123Z,15.91
2018-08-11T05:45:55.093Z,16.10
2018-08-11T05:46:55.067Z,16.00
2018-08-11T05:47:55.016Z,15.72
2018-08-11T05:48:54.993Z,16.88
2018-08-11T05:49:54.952Z,17.25
2018-08-11T05:50:54.919Z,17.74
2018-08-11T05:51:54.889Z,16.68
2018-08-11T05:52:54.850Z,15.62
2018-08-11T05:53:54.816Z,13.42
2018-08-11T05:54:54.785Z,14.09
2018-08-11T05:55:54.748Z,14.66
2018-08-11T05:56:54.707Z,14.28
2018-08-11T05:57:54.673Z,15.05
2018-08-11T05:58:54.646Z,15.14
2018-08-11T05:59:54.609Z,15.62
2018-08-11T06:00:54.578Z,1.63
2018-08-11T06:01:54.561Z,16.39
2018-08-11T06:02:54.504Z,16.97
2018-08-11T06:03:54.521Z,15.92
2018-08-11T06:04:54.443Z,17.93
2018-08-11T06:05:54.410Z,18.51
2018-08-11T06:06:54.371Z,22.15
2018-08-11T06:07:54.334Z,21.77
2018-08-11T06:08:54.297Z,22.34
2018-08-11T06:09:54.265Z,24.18
2018-08-11T06:10:54.261Z,25.04
2018-08-11T06:11:54.199Z,25.90
2018-08-11T06:12:54.171Z,26.76
2018-08-11T06:13:54.137Z,28.11
2018-08-11T06:14:54.098Z,27.82
2018-08-11T06:15:54.068Z,25.23
2018-08-11T06:16:54.026Z,28.88
2018-08-11T06:17:53.999Z,31.87
2018-08-11T06:18:53.962Z,31.08
2018-08-11T06:19:53.926Z,28.03
2018-08-11T06:20:53.890Z,31.58
2018-08-11T06:21:53.861Z,32.64
2018-08-11T06:22:53.825Z,32.73
2018-08-11T06:23:53.802Z,31.29
2018-08-11T06:24:53.761Z,33.88
2018-08-11T06:25:53.731Z,35.89
2018-08-11T06:26:53.692Z,37.43
2018-08-11T06:27:53.655Z,37.80
2018-08-11T06:28:53.621Z,37.89
2018-08-11T06:29:53.592Z,36.95
2018-08-11T06:30:53.557Z,35.99
2018-08-11T06:31:53.537Z,35.40
2018-08-11T06:32:53.491Z,33.29
2018-08-11T06:33:53.452Z,32.81
2018-08-11T06:34:53.423Z,31.84
2018-08-11T06:35:53.389Z,31.93
2018-08-11T06:36:53.358Z,31.54
2018-08-11T06:37:53.323Z,32.90
2018-08-11T06:38:53.291Z,35.97
2018-08-11T06:39:53.251Z,37.01
2018-08-11T06:40:53.275Z,35.86
2018-08-11T06:41:53.363Z,37.80
2018-08-11T06:42:53.152Z,36.15
2018-08-11T06:43:53.120Z,36.26
2018-08-11T06:44:53.089Z,37.70
2018-08-11T06:45:53.059Z,40.96
2018-08-11T06:46:53.030Z,41.16
2018-08-11T06:47:52.983Z,40.39
2018-08-11T06:48:52.952Z,40.77
2018-08-11T06:49:52.919Z,40.58
2018-08-11T06:50:52.887Z,39.72
2018-08-11T06:51:52.848Z,41.83
2018-08-11T06:52:52.941Z,41.83
2018-08-11T06:53:52.784Z,42.33
2018-08-11T06:54:52.756Z,43.77
2018-08-11T06:55:52.717Z,49.05
2018-08-11T06:56:52.691Z,50.96
2018-08-11T06:57:52.657Z,49.82
2018-08-11T06:58:52.618Z,46.84
2018-08-11T06:59:52.579Z,46.24
2018-08-11T07:00:52.547Z,42.98
2018-08-11T07:01:52.512Z,44.13
2018-08-11T07:02:52.484Z,41.25
2018-08-11T07:03:52.492Z,40.20
2018-08-11T07:04:52.417Z,40.58
2018-08-11T07:05:52.378Z,42.30
2018-08-11T07:06:52.356Z,43.84
2018-08-11T07:07:52.316Z,44.42
2018-08-11T07:08:52.307Z,43.27
2018-08-11T07:09:52.257Z,42.40
2018-08-11T07:10:52.215Z,42.88
2018-08-11T07:11:52.178Z,48.35
2018-08-11T07:12:52.146Z,50.84
2018-08-11T07:13:52.110Z,49.88
2018-08-11T07:14:52.085Z,50.78
2018-08-11T07:15:52.047Z,49.91
2018-08-11T07:16:52.018Z,50.01
2018-08-11T07:17:51.983Z,57.11
2018-08-11T07:18:51.948Z,57.11
2018-08-11T07:19:51.910Z,57.21
2018-08-11T07:20:51.879Z,56.05
2018-08-11T07:21:51.851Z,53.85
2018-08-11T07:22:51.832Z,54.61
2018-08-11T07:23:51.777Z,55.35
2018-08-11T07:24:51.743Z,55.64
2018-08-11T07:25:51.712Z,56.12
2018-08-11T07:26:51.682Z,58.04
2018-08-11T07:27:51.646Z,56.22
2018-08-11T07:28:51.615Z,56.70
2018-08-11T07:29:51.581Z,56.98
2018-08-11T07:30:51.547Z,58.81
2018-08-11T07:31:51.546Z,59.22
2018-08-11T07:32:51.476Z,60.47
2018-08-11T07:33:51.443Z,61.91
2018-08-11T07:34:51.416Z,63.35
2018-08-11T07:35:51.378Z,64.43
2018-08-11T07:36:51.354Z,64.72
2018-08-11T07:37:51.309Z,64.82
2018-08-11T07:38:51.279Z,65.40
2018-08-11T07:39:51.246Z,67.70
2018-08-11T07:40:51.296Z,67.70
2018-08-11T07:41:51.181Z,67.03
2018-08-11T07:42:51.146Z,67.99
2018-08-11T07:43:51.112Z,67.13
2018-08-11T07:44:51.076Z,65.88
2018-08-11T07:45:51.045Z,65.97
2018-08-11T07:46:51.011Z,64.34
2018-08-11T07:47:50.989Z,63.48
2018-08-11T07:48:50.949Z,63.54
2018-08-11T07:49:50.931Z,63.16
2018-08-11T07:50:50.881Z,61.91
2018-08-11T07:51:50.846Z,62.87
2018-08-11T07:52:50.811Z,63.16
2018-08-11T07:53:50.783Z,61.69
2018-08-11T07:54:50.750Z,60.44
2018-08-11T07:55:50.723Z,61.40
2018-08-11T07:56:50.678Z,62.16
2018-08-11T07:57:50.647Z,64.56
2018-08-11T07:58:50.614Z,65.56
2018-08-11T07:59:50.586Z,68.15
2018-08-11T08:00:50.551Z,69.20
2018-08-11T08:01:50.519Z,69.11
2018-08-11T08:02:50.483Z,69.01
2018-08-11T08:03:50.449Z,69.11
2018-08-11T08:04:50.413Z,68.28
2018-08-11T08:05:50.380Z,69.53
2018-08-11T08:06:50.348Z,70.23
2018-08-11T08:07:50.318Z,71.58
2018-08-11T08:08:50.286Z,73.11
2018-08-11T08:09:50.249Z,72.34
2018-08-11T08:10:50.216Z,71.39
2018-08-11T08:11:50.187Z,69.75
2018-08-11T08:12:50.155Z,70.43
2018-08-11T08:13:50.126Z,71.87
2018-08-11T08:14:50.087Z,70.78
2018-08-11T08:15:50.053Z,69.62
2018-08-11T08:16:50.018Z,69.43
2018-08-11T08:17:49.984Z,69.11
2018-08-11T08:18:49.952Z,68.05
2018-08-11T08:19:49.921Z,67.19
2018-08-11T08:20:49.891Z,66.36
2018-08-11T08:21:49.858Z,67.51
2018-08-11T08:22:49.824Z,68.57
2018-08-11T08:23:49.788Z,68.57
2018-08-11T08:24:49.754Z,70.29
2018-08-11T08:25:49.727Z,68.76
2018-08-11T08:26:49.746Z,71.73
2018-08-11T08:27:49.655Z,71.73
2018-08-11T08:28:49.628Z,71.45
2018-08-11T08:29:49.590Z,71.93
2018-08-11T08:30:49.558Z,72.89
2018-08-11T08:31:49.531Z,74.10
2018-08-11T08:32:49.495Z,73.24
2018-08-11T08:33:49.527Z,71.93
2018-08-11T08:34:49.430Z,72.95
2018-08-11T08:35:49.389Z,71.80
2018-08-11T08:36:49.359Z,71.12
2018-08-11T08:37:49.326Z,72.75
2018-08-11T08:38:49.292Z,73.75
2018-08-11T08:39:49.267Z,74.33
2018-08-11T08:40:49.232Z,73.46
2018-08-11T08:41:49.222Z,73.94
2018-08-11T08:42:49.160Z,73.85
2018-08-11T08:43:49.131Z,74.23
2018-08-11T08:44:49.097Z,74.08
2018-08-11T08:45:49.070Z,74.37
2018-08-11T08:46:49.033Z,72.92
2018-08-11T08:47:48.994Z,74.30
2018-08-11T08:48:48.964Z,74.27
2018-08-11T08:49:48.930Z,73.69
2018-08-11T08:50:48.896Z,73.54
2018-08-11T08:51:48.872Z,73.35
2018-08-11T08:52:48.834Z,73.28
2018-08-11T08:53:48.803Z,74.15
2018-08-11T08:54:48.772Z,72.90
2018-08-11T08:55:48.731Z,73.96
2018-08-11T08:56:48.704Z,73.67
2018-08-11T08:57:48.672Z,72.13
2018-08-11T08:58:48.644Z,73.47
2018-08-11T08:59:48.601Z,71.91
2018-08-11T09:00:48.579Z,72.19
2018-08-11T09:01:48.539Z,72.96
2018-08-11T09:02:48.509Z,73.35
2018-08-11T09:03:48.482Z,73.25
2018-08-11T09:04:48.451Z,72.73
2018-08-11T09:05:48.414Z,72.58
2018-08-11T09:06:48.381Z,71.81
2018-08-11T09:07:48.342Z,71.14
2018-08-11T09:08:48.315Z,71.61
2018-08-11T09:09:48.281Z,71.04
2018-08-11T09:10:48.248Z,71.91
2018-08-11T09:11:48.217Z,71.23
2018-08-11T09:12:48.184Z,71.48
2018-08-11T09:13:48.152Z,71.77
2018-08-11T09:14:48.115Z,72.92
2018-08-11T09:15:48.092Z,72.86
2018-08-11T09:16:48.056Z,72.86
2018-08-11T09:17:48.020Z,72.48
2018-08-11T09:18:47.991Z,72.96
2018-08-11T09:19:47.955Z,72.92
2018-08-11T09:20:47.920Z,72.64
2018-08-11T09:21:47.889Z,72.64
2018-08-11T09:22:47.854Z,73.21
2018-08-11T09:23:47.862Z,73.50
2018-08-11T09:24:47.792Z,72.92
2018-08-11T09:25:47.762Z,73.31
2018-08-11T09:26:47.729Z,72.67
2018-08-11T09:27:47.691Z,72.86
2018-08-11T09:28:47.661Z,71.61
2018-08-11T09:29:47.629Z,71.23
2018-08-11T09:30:47.599Z,70.94
2018-08-11T09:31:47.565Z,70.98
2018-08-11T09:32:47.531Z,70.68
2018-08-11T09:33:47.499Z,70.01
2018-08-11T09:34:47.478Z,70.30
2018-08-11T09:35:47.436Z,69.98
2018-08-11T09:36:47.402Z,70.07
2018-08-11T09:37:47.370Z,69.40
2018-08-11T09:38:47.342Z,70.23
2018-08-11T09:39:47.301Z,71.00
2018-08-11T09:40:47.285Z,71.10
2018-08-11T09:41:47.239Z,71.77
2018-08-11T09:42:47.204Z,71.87
2018-08-11T09:43:47.177Z,72.64
2018-08-11T09:44:47.143Z,72.64
2018-08-11T09:45:47.153Z,72.67
2018-08-11T09:46:47.077Z,72.48
2018-08-11T09:47:47.053Z,72.29
2018-08-11T09:48:47.013Z,72.09
2018-08-11T09:49:46.978Z,71.23
2018-08-11T09:50:46.950Z,70.88
2018-08-11T09:51:46.913Z,71.08
2018-08-11T09:52:46.881Z,70.50
2018-08-11T09:53:46.858Z,69.60
2018-08-11T09:54:46.815Z,69.60
2018-08-11T09:55:46.787Z,69.02
2018-08-11T09:56:46.755Z,68.54
2018-08-11T09:57:46.722Z,68.96
2018-08-11T09:58:46.744Z,68.96
2018-08-11T09:59:46.654Z,69.21
2018-08-11T10:00:46.626Z,68.48
2018-08-11T10:01:46.593Z,68.48
2018-08-11T10:02:46.562Z,68.19
2018-08-11T10:03:46.526Z,67.38
2018-08-11T10:04:46.495Z,67.29
2018-08-11T10:05:46.463Z,67.58
2018-08-11T10:06:46.428Z,67.58
2018-08-11T10:07:46.402Z,68.92
2018-08-11T10:21:16.445Z,67.26
2018-08-11T10:22:16.395Z,66.49
2018-08-11T10:23:16.348Z,64.28
2018-08-11T10:24:16.307Z,62.06
2018-08-11T10:25:16.273Z,62.16
2018-08-11T10:26:16.241Z,59.69
2018-08-11T10:27:16.205Z,59.49
2018-08-11T10:28:16.171Z,61.80
2018-08-11T10:29:16.140Z,60.36
2018-08-11T10:30:16.100Z,60.00
2018-08-11T10:31:16.066Z,59.23
2018-08-11T10:32:16.033Z,60.39
2018-08-11T10:33:15.998Z,61.93
2018-08-11T10:34:15.969Z,59.65
2018-08-11T10:35:15.942Z,57.92
2018-08-11T10:36:15.902Z,58.59
2018-08-11T10:37:15.877Z,57.50
2018-08-11T10:38:15.833Z,58.40
2018-08-11T10:39:15.803Z,56.85
2018-08-11T10:40:15.905Z,58.01
2018-08-11T10:41:15.745Z,57.62
2018-08-11T10:42:15.707Z,58.11
2018-08-11T10:43:15.676Z,57.92
2018-08-11T10:44:15.647Z,57.69
2018-08-11T10:45:15.608Z,59.04
2018-08-11T10:46:15.585Z,58.75
2018-08-11T10:47:15.550Z,58.17
2018-08-11T10:48:15.518Z,59.81
2018-08-11T10:49:15.488Z,61.65
2018-08-11T10:50:15.451Z,58.85
2018-08-11T10:51:15.420Z,56.90
2018-08-11T10:52:15.388Z,56.63
2018-08-11T10:53:15.356Z,56.63
2018-08-11T10:54:15.333Z,56.35
2018-08-11T10:55:15.343Z,55.19
2018-08-11T10:56:15.264Z,57.09
2018-08-11T10:57:15.227Z,56.92
2018-08-11T10:58:15.203Z,57.31
2018-08-11T10:59:15.168Z,57.79
2018-08-11T11:00:15.137Z,57.89
2018-08-11T11:01:15.116Z,57.40
2018-08-11T11:02:15.070Z,58.17
2018-08-11T11:03:15.039Z,59.23
2018-08-11T11:04:15.008Z,58.30
2018-08-11T11:05:14.980Z,59.45
2018-08-11T11:06:14.951Z,58.20
2018-08-11T11:07:14.916Z,55.60
2018-08-11T11:08:14.935Z,54.61
2018-08-11T11:09:14.859Z,54.54
2018-08-11T11:10:14.817Z,54.64
2018-08-11T11:11:14.788Z,53.58
2018-08-11T11:12:14.759Z,53.58
2018-08-11T11:13:14.731Z,55.60
2018-08-11T11:14:14.745Z,54.74
2018-08-11T11:15:14.663Z,55.54
2018-08-11T11:16:14.638Z,54.47
2018-08-11T11:17:14.599Z,53.31
2018-08-11T11:18:14.576Z,52.55
2018-08-11T11:19:14.544Z,52.83
2018-08-11T11:20:14.510Z,52.76
2018-08-11T11:21:14.480Z,52.57
2018-08-11T11:22:14.442Z,52.76
2018-08-11T11:23:14.416Z,54.28
2018-08-11T11:24:14.383Z,55.51
2018-08-11T11:25:14.353Z,56.76
2018-08-11T11:26:14.328Z,57.69
2018-08-11T11:27:14.292Z,57.43
2018-08-11T11:28:14.260Z,57.92
2018-08-11T11:29:14.226Z,57.92
2018-08-11T11:30:14.201Z,59.36
2018-08-11T11:31:14.173Z,58.85
2018-08-11T11:32:14.137Z,58.85
2018-08-11T11:33:14.108Z,59.49
2018-08-11T11:34:14.070Z,60.27
2018-08-11T11:35:14.042Z,61.71
2018-08-11T11:36:14.012Z,61.52
2018-08-11T11:37:13.989Z,60.55
2018-08-11T11:38:13.957Z,59.97
2018-08-11T11:39:13.918Z,60.75
2018-08-11T11:40:13.895Z,60.07
2018-08-11T11:41:13.860Z,60.46
2018-08-11T11:42:13.824Z,59.11
2018-08-11T11:43:13.811Z,58.05
2018-08-11T11:44:13.764Z,58.63
2018-08-11T11:45:13.736Z,59.04
2018-08-11T11:46:13.697Z,56.54
2018-08-11T11:47:13.664Z,56.25
2018-08-11T11:48:13.639Z,55.99
2018-08-11T11:49:13.602Z,55.70
2018-08-11T11:50:13.575Z,55.99
2018-08-11T11:51:13.541Z,55.99
2018-08-11T11:52:13.514Z,56.95
2018-08-11T11:53:13.482Z,56.66
2018-08-11T11:54:13.444Z,55.77
2018-08-11T11:55:13.415Z,55.19
2018-08-11T11:56:13.384Z,55.31
2018-08-11T11:57:13.351Z,55.31
2018-08-11T11:58:13.331Z,55.70
2018-08-11T11:59:13.292Z,55.12
2018-08-11T12:00:13.258Z,54.28
2018-08-11T12:01:13.227Z,54.86
2018-08-11T12:02:13.200Z,54.76
2018-08-11T12:03:13.168Z,54.38
2018-08-11T12:04:13.145Z,52.93
2018-08-11T12:05:13.109Z,51.87
2018-08-11T12:06:13.070Z,51.39
2018-08-11T12:07:13.045Z,50.90
2018-08-11T12:08:13.010Z,50.93
2018-08-11T12:09:12.978Z,51.22
2018-08-11T12:10:12.952Z,50.06
2018-08-11T12:11:12.924Z,50.26
2018-08-11T12:12:12.890Z,50.67
2018-08-11T12:13:12.860Z,50.67
2018-08-11T12:14:12.823Z,52.01
2018-08-11T12:15:12.795Z,51.89
2018-08-11T12:16:12.765Z,51.51
2018-08-11T12:17:12.738Z,51.61
2018-08-11T12:18:12.699Z,51.12
2018-08-11T12:19:12.670Z,51.22
2018-08-11T12:20:12.641Z,51.61
2018-08-11T12:21:12.607Z,50.93
2018-08-11T12:22:12.585Z,49.80
2018-08-11T12:23:12.550Z,49.90
2018-08-11T12:24:12.570Z,50.96
2018-08-11T12:25:12.803Z,52.59
2018-08-11T12:26:12.456Z,50.69
2018-08-11T12:27:12.426Z,49.53
2018-08-11T12:28:12.396Z,48.76
2018-08-11T12:29:12.363Z,50.59
2018-08-11T12:30:12.347Z,49.53
2018-08-11T12:31:12.317Z,49.82
2018-08-11T12:32:12.276Z,49.99
2018-08-11T12:33:12.243Z,49.99
2018-08-11T12:34:12.215Z,51.15
2018-08-11T12:35:12.184Z,51.70
2018-08-11T12:36:12.159Z,51.61
2018-08-11T12:37:12.128Z,52.28
2018-08-11T12:38:12.090Z,52.47
2018-08-11T12:39:12.060Z,52.93
2018-08-11T12:40:12.029Z,53.80
2018-08-11T12:41:11.999Z,54.38
2018-08-11T12:42:11.973Z,53.41
2018-08-11T12:43:11.940Z,53.61
2018-08-11T12:44:11.911Z,54.66
2018-08-11T12:45:11.882Z,54.76
2018-08-11T12:46:11.849Z,54.44
2018-08-11T12:47:12.003Z,54.09
2018-08-11T12:48:11.790Z,53.61
2018-08-11T12:49:11.758Z,53.31
2018-08-11T12:50:11.725Z,54.57
2018-08-11T12:51:11.695Z,52.86
2018-08-11T12:52:11.663Z,52.09
2018-08-11T12:53:11.630Z,51.58
2018-08-11T12:54:11.605Z,51.68
2018-08-11T12:55:11.573Z,52.25
2018-08-11T12:56:11.544Z,51.29
2018-08-11T12:57:11.547Z,51.20
2018-08-11T12:58:11.480Z,49.34
2018-08-11T12:59:11.447Z,48.30
2018-08-11T13:00:11.423Z,48.59
2018-08-11T13:01:11.386Z,49.77
2018-08-11T13:02:11.360Z,48.90
2018-08-11T13:03:11.327Z,48.03
2018-08-11T13:04:11.294Z,48.23
2018-08-11T13:05:11.264Z,48.52
2018-08-11T13:06:11.239Z,49.12
2018-08-11T13:07:11.205Z,48.35
2018-08-11T13:08:11.174Z,49.51
2018-08-11T13:09:11.154Z,48.64
2018-08-11T13:10:11.111Z,48.35
2018-08-11T13:11:11.081Z,47.67
2018-08-11T13:12:11.058Z,48.54
2018-08-11T13:13:11.026Z,48.35
2018-08-11T13:14:10.989Z,49.12
2018-08-11T13:15:10.959Z,49.32
2018-08-11T13:16:10.929Z,48.74
2018-08-11T13:17:10.899Z,50.09
2018-08-11T13:18:10.871Z,49.60
2018-08-11T13:19:10.900Z,49.63